sensor_id;sensor_type;location;lat;lon;timestamp;P1;durP1;ratioP1;P2;durP2;ratioP2
53873;SDS011;62246;50.938;4.058;2022-07-23T00:00:29;22.02;;;10.88;;
53873;SDS011;62246;50.938;4.058;2022-07-23T00:02:55;13.55;;;9.02;;
53873;SDS011;62246;50.938;4.058;2022-07-23T00:05:20;14.55;;;9.35;;
53873;SDS011;62246;50.938;4.058;2022-07-23T00:07:45;19.10;;;10.60;;
53873;SDS011;62246;50.938;4.058;2022-07-23T00:10:11;18.05;;;10.40;;
53873;SDS011;62246;50.938;4.058;2022-07-23T00:12:37;16.77;;;10.88;;
53873;SDS011;62246;50.938;4.058;2022-07-23T00:15:04;15.85;;;9.85;;
53873;SDS011;62246;50.938;4.058;2022-07-23T00:17:31;20.02;;;11.07;;
53873;SDS011;62246;50.938;4.058;2022-07-23T00:19:56;18.00;;;10.65;;
53873;SDS011;62246;50.938;4.058;2022-07-23T00:22:22;21.95;;;11.23;;
53873;SDS011;62246;50.938;4.058;2022-07-23T00:24:47;15.68;;;10.52;;
53873;SDS011;62246;50.938;4.058;2022-07-23T00:27:13;19.45;;;11.40;;
53873;SDS011;62246;50.938;4.058;2022-07-23T00:29:38;22.63;;;11.52;;
53873;SDS011;62246;50.938;4.058;2022-07-23T00:32:03;19.60;;;11.65;;
53873;SDS011;62246;50.938;4.058;2022-07-23T00:34:29;16.92;;;10.50;;
53873;SDS011;62246;50.938;4.058;2022-07-23T00:36:55;16.30;;;9.85;;
53873;SDS011;62246;50.938;4.058;2022-07-23T00:39:21;14.98;;;9.65;;
53873;SDS011;62246;50.938;4.058;2022-07-23T00:41:47;16.58;;;10.10;;
53873;SDS011;62246;50.938;4.058;2022-07-23T00:44:17;24.33;;;10.18;;
53873;SDS011;62246;50.938;4.058;2022-07-23T00:46:48;16.17;;;9.75;;
53873;SDS011;62246;50.938;4.058;2022-07-23T00:49:15;19.38;;;11.10;;
53873;SDS011;62246;50.938;4.058;2022-07-23T00:51:40;17.77;;;10.85;;
53873;SDS011;62246;50.938;4.058;2022-07-23T00:54:06;16.27;;;10.18;;
53873;SDS011;62246;50.938;4.058;2022-07-23T00:56:32;16.38;;;10.23;;
53873;SDS011;62246;50.938;4.058;2022-07-23T00:58:58;17.00;;;10.68;;
53873;SDS011;62246;50.938;4.058;2022-07-23T01:01:25;18.77;;;10.48;;
53873;SDS011;62246;50.938;4.058;2022-07-23T01:03:50;16.50;;;10.55;;
53873;SDS011;62246;50.938;4.058;2022-07-23T01:06:15;23.98;;;12.63;;
53873;SDS011;62246;50.938;4.058;2022-07-23T01:08:41;19.00;;;11.75;;
53873;SDS011;62246;50.938;4.058;2022-07-23T01:11:07;19.58;;;12.90;;
53873;SDS011;62246;50.938;4.058;2022-07-23T01:13:33;18.13;;;11.18;;
53873;SDS011;62246;50.938;4.058;2022-07-23T01:15:59;21.65;;;11.63;;
53873;SDS011;62246;50.938;4.058;2022-07-23T01:18:25;20.25;;;13.52;;
53873;SDS011;62246;50.938;4.058;2022-07-23T01:20:50;21.15;;;13.18;;
53873;SDS011;62246;50.938;4.058;2022-07-23T01:23:15;22.73;;;13.48;;
53873;SDS011;62246;50.938;4.058;2022-07-23T01:25:48;20.20;;;11.25;;
53873;SDS011;62246;50.938;4.058;2022-07-23T01:28:17;20.05;;;12.07;;
53873;SDS011;62246;50.938;4.058;2022-07-23T01:30:42;17.05;;;10.73;;
53873;SDS011;62246;50.938;4.058;2022-07-23T01:33:07;18.45;;;12.23;;
53873;SDS011;62246;50.938;4.058;2022-07-23T01:35:33;18.83;;;12.13;;
53873;SDS011;62246;50.938;4.058;2022-07-23T01:37:58;19.13;;;11.80;;
53873;SDS011;62246;50.938;4.058;2022-07-23T01:40:24;17.65;;;11.20;;
53873;SDS011;62246;50.938;4.058;2022-07-23T01:42:49;16.92;;;10.45;;
53873;SDS011;62246;50.938;4.058;2022-07-23T01:45:15;17.60;;;10.55;;
53873;SDS011;62246;50.938;4.058;2022-07-23T01:47:40;21.25;;;11.40;;
53873;SDS011;62246;50.938;4.058;2022-07-23T01:50:06;17.55;;;11.60;;
53873;SDS011;62246;50.938;4.058;2022-07-23T01:52:32;19.85;;;11.25;;
53873;SDS011;62246;50.938;4.058;2022-07-23T01:54:57;18.33;;;11.13;;
53873;SDS011;62246;50.938;4.058;2022-07-23T01:57:22;17.25;;;11.18;;
53873;SDS011;62246;50.938;4.058;2022-07-23T01:59:48;16.27;;;9.98;;
53873;SDS011;62246;50.938;4.058;2022-07-23T02:02:16;17.67;;;10.43;;
53873;SDS011;62246;50.938;4.058;2022-07-23T02:04:42;19.42;;;10.70;;
53873;SDS011;62246;50.938;4.058;2022-07-23T02:07:07;17.40;;;10.82;;
53873;SDS011;62246;50.938;4.058;2022-07-23T02:09:32;19.52;;;10.88;;
53873;SDS011;62246;50.938;4.058;2022-07-23T02:11:58;19.23;;;10.82;;
53873;SDS011;62246;50.938;4.058;2022-07-23T02:14:24;17.75;;;11.95;;
53873;SDS011;62246;50.938;4.058;2022-07-23T02:16:50;19.48;;;12.55;;
53873;SDS011;62246;50.938;4.058;2022-07-23T02:19:15;24.70;;;12.88;;
53873;SDS011;62246;50.938;4.058;2022-07-23T02:21:41;18.48;;;10.93;;
53873;SDS011;62246;50.938;4.058;2022-07-23T02:24:06;20.83;;;11.48;;
53873;SDS011;62246;50.938;4.058;2022-07-23T02:26:32;21.00;;;11.88;;
53873;SDS011;62246;50.938;4.058;2022-07-23T02:28:59;19.13;;;11.32;;
53873;SDS011;62246;50.938;4.058;2022-07-23T02:31:26;23.08;;;11.65;;
53873;SDS011;62246;50.938;4.058;2022-07-23T02:33:51;18.02;;;11.50;;
53873;SDS011;62246;50.938;4.058;2022-07-23T02:36:17;19.23;;;11.60;;
53873;SDS011;62246;50.938;4.058;2022-07-23T02:38:42;19.17;;;12.25;;
53873;SDS011;62246;50.938;4.058;2022-07-23T02:41:08;18.08;;;11.73;;
53873;SDS011;62246;50.938;4.058;2022-07-23T02:43:33;20.70;;;12.27;;
53873;SDS011;62246;50.938;4.058;2022-07-23T02:45:59;19.27;;;11.73;;
53873;SDS011;62246;50.938;4.058;2022-07-23T02:48:25;18.08;;;11.75;;
53873;SDS011;62246;50.938;4.058;2022-07-23T02:50:51;19.50;;;12.85;;
53873;SDS011;62246;50.938;4.058;2022-07-23T02:53:17;19.50;;;12.32;;
53873;SDS011;62246;50.938;4.058;2022-07-23T02:55:42;22.90;;;14.52;;
53873;SDS011;62246;50.938;4.058;2022-07-23T02:58:08;23.83;;;13.73;;
53873;SDS011;62246;50.938;4.058;2022-07-23T03:00:33;21.83;;;13.15;;
53873;SDS011;62246;50.938;4.058;2022-07-23T03:02:59;17.48;;;12.48;;
53873;SDS011;62246;50.938;4.058;2022-07-23T03:05:24;22.83;;;13.32;;
53873;SDS011;62246;50.938;4.058;2022-07-23T03:07:50;22.15;;;13.75;;
53873;SDS011;62246;50.938;4.058;2022-07-23T03:10:15;19.70;;;13.00;;
53873;SDS011;62246;50.938;4.058;2022-07-23T03:12:40;21.92;;;13.80;;
53873;SDS011;62246;50.938;4.058;2022-07-23T03:15:06;21.73;;;13.77;;
53873;SDS011;62246;50.938;4.058;2022-07-23T03:17:32;22.38;;;13.88;;
53873;SDS011;62246;50.938;4.058;2022-07-23T03:19:58;24.13;;;14.90;;
53873;SDS011;62246;50.938;4.058;2022-07-23T03:22:23;23.73;;;15.63;;
53873;SDS011;62246;50.938;4.058;2022-07-23T03:24:49;24.83;;;15.32;;
53873;SDS011;62246;50.938;4.058;2022-07-23T03:27:24;22.70;;;14.32;;
53873;SDS011;62246;50.938;4.058;2022-07-23T03:29:51;21.47;;;13.10;;
53873;SDS011;62246;50.938;4.058;2022-07-23T03:32:18;23.77;;;13.63;;
53873;SDS011;62246;50.938;4.058;2022-07-23T03:34:44;19.65;;;13.68;;
53873;SDS011;62246;50.938;4.058;2022-07-23T03:37:10;21.95;;;14.18;;
53873;SDS011;62246;50.938;4.058;2022-07-23T03:39:36;21.92;;;14.10;;
53873;SDS011;62246;50.938;4.058;2022-07-23T03:42:01;22.25;;;12.95;;
53873;SDS011;62246;50.938;4.058;2022-07-23T03:44:27;24.73;;;15.05;;
53873;SDS011;62246;50.938;4.058;2022-07-23T03:46:52;20.00;;;13.52;;
53873;SDS011;62246;50.938;4.058;2022-07-23T03:49:17;19.80;;;13.35;;
53873;SDS011;62246;50.938;4.058;2022-07-23T03:51:43;20.30;;;13.45;;
53873;SDS011;62246;50.938;4.058;2022-07-23T03:54:08;22.27;;;14.32;;
53873;SDS011;62246;50.938;4.058;2022-07-23T03:56:34;21.30;;;12.85;;
53873;SDS011;62246;50.938;4.058;2022-07-23T03:59:00;19.48;;;12.27;;
53873;SDS011;62246;50.938;4.058;2022-07-23T04:01:26;21.27;;;13.38;;
53873;SDS011;62246;50.938;4.058;2022-07-23T04:03:51;26.17;;;14.77;;
53873;SDS011;62246;50.938;4.058;2022-07-23T04:06:17;19.80;;;12.63;;
53873;SDS011;62246;50.938;4.058;2022-07-23T04:08:42;24.27;;;15.25;;
53873;SDS011;62246;50.938;4.058;2022-07-23T04:11:08;24.40;;;14.63;;
53873;SDS011;62246;50.938;4.058;2022-07-23T04:13:33;22.55;;;13.98;;
53873;SDS011;62246;50.938;4.058;2022-07-23T04:15:59;19.35;;;12.60;;
53873;SDS011;62246;50.938;4.058;2022-07-23T04:18:24;22.25;;;13.95;;
53873;SDS011;62246;50.938;4.058;2022-07-23T04:20:53;21.65;;;13.70;;
53873;SDS011;62246;50.938;4.058;2022-07-23T04:23:18;24.13;;;14.38;;
53873;SDS011;62246;50.938;4.058;2022-07-23T04:25:44;25.17;;;14.38;;
53873;SDS011;62246;50.938;4.058;2022-07-23T04:28:09;23.67;;;13.50;;
53873;SDS011;62246;50.938;4.058;2022-07-23T04:30:34;20.02;;;12.80;;
53873;SDS011;62246;50.938;4.058;2022-07-23T04:33:00;24.10;;;13.85;;
53873;SDS011;62246;50.938;4.058;2022-07-23T04:35:26;22.02;;;13.45;;
53873;SDS011;62246;50.938;4.058;2022-07-23T04:37:51;17.60;;;12.15;;
53873;SDS011;62246;50.938;4.058;2022-07-23T04:40:17;19.65;;;13.15;;
53873;SDS011;62246;50.938;4.058;2022-07-23T04:42:42;22.15;;;14.00;;
53873;SDS011;62246;50.938;4.058;2022-07-23T04:45:08;24.13;;;14.32;;
53873;SDS011;62246;50.938;4.058;2022-07-23T04:47:33;19.45;;;12.65;;
53873;SDS011;62246;50.938;4.058;2022-07-23T04:49:59;21.00;;;13.20;;
53873;SDS011;62246;50.938;4.058;2022-07-23T04:52:24;19.58;;;12.45;;
53873;SDS011;62246;50.938;4.058;2022-07-23T04:54:49;19.15;;;12.00;;
53873;SDS011;62246;50.938;4.058;2022-07-23T04:57:15;19.35;;;12.60;;
53873;SDS011;62246;50.938;4.058;2022-07-23T04:59:40;21.40;;;13.88;;
53873;SDS011;62246;50.938;4.058;2022-07-23T05:02:06;19.83;;;13.13;;
53873;SDS011;62246;50.938;4.058;2022-07-23T05:04:31;18.73;;;12.82;;
53873;SDS011;62246;50.938;4.058;2022-07-23T05:06:57;17.05;;;11.50;;
53873;SDS011;62246;50.938;4.058;2022-07-23T05:09:23;18.33;;;11.63;;
53873;SDS011;62246;50.938;4.058;2022-07-23T05:11:49;17.95;;;12.77;;
53873;SDS011;62246;50.938;4.058;2022-07-23T05:14:14;19.55;;;12.52;;
53873;SDS011;62246;50.938;4.058;2022-07-23T05:16:40;18.92;;;12.15;;
53873;SDS011;62246;50.938;4.058;2022-07-23T05:19:05;23.17;;;13.60;;
53873;SDS011;62246;50.938;4.058;2022-07-23T05:21:31;18.08;;;10.85;;
53873;SDS011;62246;50.938;4.058;2022-07-23T05:23:56;21.73;;;14.18;;
53873;SDS011;62246;50.938;4.058;2022-07-23T05:26:22;21.10;;;12.98;;
53873;SDS011;62246;50.938;4.058;2022-07-23T05:28:47;23.67;;;12.65;;
53873;SDS011;62246;50.938;4.058;2022-07-23T05:31:13;19.20;;;13.38;;
53873;SDS011;62246;50.938;4.058;2022-07-23T05:33:38;21.85;;;13.40;;
53873;SDS011;62246;50.938;4.058;2022-07-23T05:36:04;20.58;;;13.82;;
53873;SDS011;62246;50.938;4.058;2022-07-23T05:38:29;22.13;;;14.02;;
53873;SDS011;62246;50.938;4.058;2022-07-23T05:40:55;23.15;;;13.65;;
53873;SDS011;62246;50.938;4.058;2022-07-23T05:43:20;20.63;;;13.68;;
53873;SDS011;62246;50.938;4.058;2022-07-23T05:45:46;22.00;;;13.70;;
53873;SDS011;62246;50.938;4.058;2022-07-23T05:48:11;22.83;;;14.88;;
53873;SDS011;62246;50.938;4.058;2022-07-23T05:50:37;23.73;;;13.73;;
53873;SDS011;62246;50.938;4.058;2022-07-23T05:53:03;21.92;;;14.15;;
53873;SDS011;62246;50.938;4.058;2022-07-23T05:55:29;22.80;;;13.18;;
53873;SDS011;62246;50.938;4.058;2022-07-23T05:57:56;20.58;;;13.10;;
53873;SDS011;62246;50.938;4.058;2022-07-23T06:00:22;20.55;;;13.43;;
53873;SDS011;62246;50.938;4.058;2022-07-23T06:02:48;25.35;;;16.08;;
53873;SDS011;62246;50.938;4.058;2022-07-23T06:05:14;24.25;;;15.25;;
53873;SDS011;62246;50.938;4.058;2022-07-23T06:07:39;21.33;;;14.13;;
53873;SDS011;62246;50.938;4.058;2022-07-23T06:10:05;23.40;;;14.68;;
53873;SDS011;62246;50.938;4.058;2022-07-23T06:12:31;23.30;;;14.70;;
53873;SDS011;62246;50.938;4.058;2022-07-23T06:14:56;27.02;;;15.55;;
53873;SDS011;62246;50.938;4.058;2022-07-23T06:17:22;22.70;;;13.35;;
53873;SDS011;62246;50.938;4.058;2022-07-23T06:19:47;19.52;;;12.65;;
53873;SDS011;62246;50.938;4.058;2022-07-23T06:22:13;26.60;;;14.30;;
53873;SDS011;62246;50.938;4.058;2022-07-23T06:24:38;25.00;;;15.10;;
53873;SDS011;62246;50.938;4.058;2022-07-23T06:27:04;19.95;;;13.27;;
53873;SDS011;62246;50.938;4.058;2022-07-23T06:29:30;20.30;;;13.68;;
53873;SDS011;62246;50.938;4.058;2022-07-23T06:31:55;22.05;;;13.73;;
53873;SDS011;62246;50.938;4.058;2022-07-23T06:34:21;22.15;;;13.45;;
53873;SDS011;62246;50.938;4.058;2022-07-23T06:36:46;18.35;;;12.65;;
53873;SDS011;62246;50.938;4.058;2022-07-23T06:39:12;18.13;;;12.95;;
53873;SDS011;62246;50.938;4.058;2022-07-23T06:41:37;19.05;;;12.90;;
53873;SDS011;62246;50.938;4.058;2022-07-23T06:44:03;23.38;;;14.20;;
53873;SDS011;62246;50.938;4.058;2022-07-23T06:46:28;21.23;;;13.43;;
53873;SDS011;62246;50.938;4.058;2022-07-23T06:48:54;23.35;;;13.35;;
53873;SDS011;62246;50.938;4.058;2022-07-23T06:51:19;22.10;;;13.65;;
53873;SDS011;62246;50.938;4.058;2022-07-23T06:53:45;20.55;;;11.55;;
53873;SDS011;62246;50.938;4.058;2022-07-23T06:56:10;22.80;;;14.30;;
53873;SDS011;62246;50.938;4.058;2022-07-23T06:58:35;21.48;;;12.15;;
53873;SDS011;62246;50.938;4.058;2022-07-23T07:01:01;20.48;;;12.73;;
53873;SDS011;62246;50.938;4.058;2022-07-23T07:03:26;22.90;;;13.50;;
53873;SDS011;62246;50.938;4.058;2022-07-23T07:05:52;19.48;;;11.27;;
53873;SDS011;62246;50.938;4.058;2022-07-23T07:08:18;18.73;;;11.90;;
53873;SDS011;62246;50.938;4.058;2022-07-23T07:10:43;17.25;;;10.85;;
53873;SDS011;62246;50.938;4.058;2022-07-23T07:13:09;20.75;;;12.25;;
53873;SDS011;62246;50.938;4.058;2022-07-23T07:15:34;19.33;;;12.93;;
53873;SDS011;62246;50.938;4.058;2022-07-23T07:18:00;20.80;;;12.43;;
53873;SDS011;62246;50.938;4.058;2022-07-23T07:20:25;19.23;;;11.82;;
53873;SDS011;62246;50.938;4.058;2022-07-23T07:22:51;15.00;;;10.88;;
53873;SDS011;62246;50.938;4.058;2022-07-23T07:25:16;15.52;;;11.05;;
53873;SDS011;62246;50.938;4.058;2022-07-23T07:27:42;15.70;;;10.75;;
53873;SDS011;62246;50.938;4.058;2022-07-23T07:30:09;20.80;;;12.02;;
53873;SDS011;62246;50.938;4.058;2022-07-23T07:32:35;16.35;;;9.77;;
53873;SDS011;62246;50.938;4.058;2022-07-23T07:35:02;14.70;;;9.95;;
53873;SDS011;62246;50.938;4.058;2022-07-23T07:37:29;15.00;;;9.38;;
53873;SDS011;62246;50.938;4.058;2022-07-23T07:39:54;12.68;;;8.88;;
53873;SDS011;62246;50.938;4.058;2022-07-23T07:42:20;13.30;;;8.90;;
53873;SDS011;62246;50.938;4.058;2022-07-23T07:44:45;16.27;;;10.65;;
53873;SDS011;62246;50.938;4.058;2022-07-23T07:47:11;14.98;;;9.35;;
53873;SDS011;62246;50.938;4.058;2022-07-23T07:49:36;15.00;;;9.35;;
53873;SDS011;62246;50.938;4.058;2022-07-23T07:52:02;14.60;;;10.10;;
53873;SDS011;62246;50.938;4.058;2022-07-23T07:54:28;14.40;;;9.18;;
53873;SDS011;62246;50.938;4.058;2022-07-23T07:56:53;15.60;;;8.20;;
53873;SDS011;62246;50.938;4.058;2022-07-23T07:59:18;14.38;;;8.82;;
53873;SDS011;62246;50.938;4.058;2022-07-23T08:01:44;11.70;;;7.45;;
53873;SDS011;62246;50.938;4.058;2022-07-23T08:04:09;15.25;;;9.00;;
53873;SDS011;62246;50.938;4.058;2022-07-23T08:06:35;14.85;;;9.57;;
53873;SDS011;62246;50.938;4.058;2022-07-23T08:09:00;17.00;;;9.48;;
53873;SDS011;62246;50.938;4.058;2022-07-23T08:11:25;15.13;;;7.57;;
53873;SDS011;62246;50.938;4.058;2022-07-23T08:13:51;14.88;;;8.45;;
53873;SDS011;62246;50.938;4.058;2022-07-23T08:16:16;13.70;;;7.80;;
53873;SDS011;62246;50.938;4.058;2022-07-23T08:18:42;12.98;;;8.18;;
53873;SDS011;62246;50.938;4.058;2022-07-23T08:21:07;13.68;;;8.60;;
53873;SDS011;62246;50.938;4.058;2022-07-23T08:23:33;14.60;;;8.45;;
53873;SDS011;62246;50.938;4.058;2022-07-23T08:25:59;13.75;;;8.80;;
53873;SDS011;62246;50.938;4.058;2022-07-23T08:28:26;11.57;;;7.53;;
53873;SDS011;62246;50.938;4.058;2022-07-23T08:30:52;15.15;;;8.48;;
53873;SDS011;62246;50.938;4.058;2022-07-23T08:33:17;10.80;;;6.85;;
53873;SDS011;62246;50.938;4.058;2022-07-23T08:35:44;10.77;;;5.85;;
53873;SDS011;62246;50.938;4.058;2022-07-23T08:38:13;9.75;;;6.60;;
53873;SDS011;62246;50.938;4.058;2022-07-23T08:40:41;11.93;;;6.80;;
53873;SDS011;62246;50.938;4.058;2022-07-23T08:43:18;11.13;;;7.00;;
53873;SDS011;62246;50.938;4.058;2022-07-23T08:45:46;10.18;;;6.68;;
53873;SDS011;62246;50.938;4.058;2022-07-23T08:48:14;10.38;;;6.13;;
53873;SDS011;62246;50.938;4.058;2022-07-23T08:50:46;12.27;;;7.03;;
53873;SDS011;62246;50.938;4.058;2022-07-23T08:53:13;11.40;;;6.55;;
53873;SDS011;62246;50.938;4.058;2022-07-23T08:55:42;12.00;;;6.60;;
53873;SDS011;62246;50.938;4.058;2022-07-23T08:58:12;11.55;;;6.05;;
53873;SDS011;62246;50.938;4.058;2022-07-23T09:00:37;9.45;;;5.43;;
53873;SDS011;62246;50.938;4.058;2022-07-23T09:03:03;12.20;;;6.47;;
53873;SDS011;62246;50.938;4.058;2022-07-23T09:05:28;8.68;;;5.32;;
53873;SDS011;62246;50.938;4.058;2022-07-23T09:15:51;13.55;;;5.85;;
53873;SDS011;62246;50.938;4.058;2022-07-23T09:18:18;11.88;;;5.65;;
53873;SDS011;62246;50.938;4.058;2022-07-23T09:20:44;8.90;;;5.40;;
53873;SDS011;62246;50.938;4.058;2022-07-23T09:23:10;10.55;;;5.35;;
53873;SDS011;62246;50.938;4.058;2022-07-23T09:25:35;7.70;;;4.75;;
53873;SDS011;62246;50.938;4.058;2022-07-23T09:28:01;8.95;;;5.05;;
53873;SDS011;62246;50.938;4.058;2022-07-23T09:30:32;8.10;;;4.80;;
53873;SDS011;62246;50.938;4.058;2022-07-23T09:33:13;8.77;;;5.28;;
53873;SDS011;62246;50.938;4.058;2022-07-23T09:35:50;7.13;;;4.00;;
53873;SDS011;62246;50.938;4.058;2022-07-23T09:38:17;6.28;;;3.83;;
53873;SDS011;62246;50.938;4.058;2022-07-23T09:40:44;9.40;;;4.75;;
53873;SDS011;62246;50.938;4.058;2022-07-23T09:43:10;9.18;;;4.50;;
53873;SDS011;62246;50.938;4.058;2022-07-23T09:45:37;6.63;;;3.72;;
53873;SDS011;62246;50.938;4.058;2022-07-23T09:48:11;8.43;;;3.88;;
53873;SDS011;62246;50.938;4.058;2022-07-23T09:50:37;7.30;;;4.30;;
53873;SDS011;62246;50.938;4.058;2022-07-23T09:53:03;7.32;;;3.97;;
53873;SDS011;62246;50.938;4.058;2022-07-23T09:55:32;7.03;;;3.70;;
53873;SDS011;62246;50.938;4.058;2022-07-23T09:58:03;6.32;;;3.60;;
53873;SDS011;62246;50.938;4.058;2022-07-23T10:00:32;6.93;;;4.20;;
53873;SDS011;62246;50.938;4.058;2022-07-23T10:02:58;7.70;;;3.90;;
53873;SDS011;62246;50.938;4.058;2022-07-23T10:05:24;7.30;;;3.53;;
53873;SDS011;62246;50.938;4.058;2022-07-23T10:07:50;10.00;;;4.72;;
53873;SDS011;62246;50.938;4.058;2022-07-23T10:10:17;10.35;;;5.68;;
53873;SDS011;62246;50.938;4.058;2022-07-23T10:12:46;8.88;;;4.50;;
53873;SDS011;62246;50.938;4.058;2022-07-23T10:15:30;5.72;;;3.53;;
53873;SDS011;62246;50.938;4.058;2022-07-23T10:17:56;7.15;;;3.17;;
53873;SDS011;62246;50.938;4.058;2022-07-23T10:20:21;7.05;;;3.17;;
53873;SDS011;62246;50.938;4.058;2022-07-23T10:23:02;4.68;;;3.53;;
53873;SDS011;62246;50.938;4.058;2022-07-23T10:25:48;7.65;;;4.10;;
53873;SDS011;62246;50.938;4.058;2022-07-23T10:37:31;8.32;;;3.45;;
53873;SDS011;62246;50.938;4.058;2022-07-23T10:40:10;7.07;;;3.13;;
53873;SDS011;62246;50.938;4.058;2022-07-23T10:42:49;8.45;;;3.63;;
53873;SDS011;62246;50.938;4.058;2022-07-23T10:47:48;7.35;;;3.42;;
53873;SDS011;62246;50.938;4.058;2022-07-23T10:50:23;7.70;;;4.65;;
53873;SDS011;62246;50.938;4.058;2022-07-23T10:57:59;8.98;;;4.47;;
53873;SDS011;62246;50.938;4.058;2022-07-23T11:00:29;6.90;;;3.70;;
53873;SDS011;62246;50.938;4.058;2022-07-23T11:02:57;8.47;;;3.80;;
53873;SDS011;62246;50.938;4.058;2022-07-23T11:05:45;5.80;;;2.90;;
53873;SDS011;62246;50.938;4.058;2022-07-23T11:08:13;8.05;;;3.08;;
53873;SDS011;62246;50.938;4.058;2022-07-23T11:10:47;4.47;;;2.58;;
53873;SDS011;62246;50.938;4.058;2022-07-23T11:34:30;4.95;;;3.15;;
53873;SDS011;62246;50.938;4.058;2022-07-23T11:36:56;4.75;;;2.45;;
53873;SDS011;62246;50.938;4.058;2022-07-23T11:39:22;4.60;;;2.50;;
53873;SDS011;62246;50.938;4.058;2022-07-23T11:41:51;4.05;;;2.33;;
53873;SDS011;62246;50.938;4.058;2022-07-23T11:44:36;4.90;;;2.58;;
53873;SDS011;62246;50.938;4.058;2022-07-23T11:47:04;3.90;;;2.30;;
53873;SDS011;62246;50.938;4.058;2022-07-23T11:49:31;3.70;;;2.10;;
53873;SDS011;62246;50.938;4.058;2022-07-23T11:52:06;3.38;;;1.95;;
53873;SDS011;62246;50.938;4.058;2022-07-23T11:57:19;4.97;;;2.53;;
53873;SDS011;62246;50.938;4.058;2022-07-23T12:02:19;4.60;;;3.10;;
53873;SDS011;62246;50.938;4.058;2022-07-23T12:04:49;6.22;;;3.17;;
53873;SDS011;62246;50.938;4.058;2022-07-23T12:09:55;5.65;;;2.85;;
53873;SDS011;62246;50.938;4.058;2022-07-23T12:12:22;4.38;;;2.80;;
53873;SDS011;62246;50.938;4.058;2022-07-23T12:14:49;4.53;;;2.45;;
53873;SDS011;62246;50.938;4.058;2022-07-23T12:17:18;4.63;;;2.47;;
53873;SDS011;62246;50.938;4.058;2022-07-23T12:19:44;4.82;;;2.10;;
53873;SDS011;62246;50.938;4.058;2022-07-23T12:22:10;4.30;;;2.35;;
53873;SDS011;62246;50.938;4.058;2022-07-23T12:27:22;4.55;;;2.63;;
53873;SDS011;62246;50.938;4.058;2022-07-23T12:29:47;6.65;;;3.10;;
53873;SDS011;62246;50.938;4.058;2022-07-23T12:35:03;4.80;;;2.42;;
53873;SDS011;62246;50.938;4.058;2022-07-23T12:37:34;8.65;;;2.60;;
53873;SDS011;62246;50.938;4.058;2022-07-23T12:43:05;5.47;;;2.40;;
53873;SDS011;62246;50.938;4.058;2022-07-23T12:48:35;4.43;;;2.50;;
53873;SDS011;62246;50.938;4.058;2022-07-23T12:53:32;3.60;;;2.47;;
53873;SDS011;62246;50.938;4.058;2022-07-23T12:58:57;5.72;;;2.60;;
53873;SDS011;62246;50.938;4.058;2022-07-23T13:03:58;4.45;;;2.30;;
53873;SDS011;62246;50.938;4.058;2022-07-23T13:06:31;5.05;;;2.80;;
53873;SDS011;62246;50.938;4.058;2022-07-23T13:08:58;3.47;;;3.10;;
53873;SDS011;62246;50.938;4.058;2022-07-23T13:11:24;4.68;;;2.45;;
53873;SDS011;62246;50.938;4.058;2022-07-23T13:13:50;5.65;;;3.10;;
53873;SDS011;62246;50.938;4.058;2022-07-23T13:16:15;4.95;;;3.10;;
53873;SDS011;62246;50.938;4.058;2022-07-23T13:18:41;4.93;;;2.70;;
53873;SDS011;62246;50.938;4.058;2022-07-23T13:21:06;3.75;;;2.75;;
53873;SDS011;62246;50.938;4.058;2022-07-23T13:23:33;5.15;;;2.70;;
53873;SDS011;62246;50.938;4.058;2022-07-23T13:25:58;4.15;;;2.95;;
53873;SDS011;62246;50.938;4.058;2022-07-23T13:28:24;4.72;;;2.90;;
53873;SDS011;62246;50.938;4.058;2022-07-23T13:30:49;4.13;;;2.85;;
53873;SDS011;62246;50.938;4.058;2022-07-23T13:33:16;4.18;;;2.60;;
53873;SDS011;62246;50.938;4.058;2022-07-23T13:35:46;4.20;;;3.45;;
53873;SDS011;62246;50.938;4.058;2022-07-23T13:38:12;4.35;;;2.90;;
53873;SDS011;62246;50.938;4.058;2022-07-23T13:40:39;4.82;;;3.13;;
53873;SDS011;62246;50.938;4.058;2022-07-23T13:43:10;4.83;;;3.10;;
53873;SDS011;62246;50.938;4.058;2022-07-23T13:45:37;5.82;;;3.30;;
53873;SDS011;62246;50.938;4.058;2022-07-23T13:48:04;6.13;;;3.40;;
53873;SDS011;62246;50.938;4.058;2022-07-23T13:50:30;3.65;;;3.10;;
53873;SDS011;62246;50.938;4.058;2022-07-23T13:52:56;10.25;;;4.20;;
53873;SDS011;62246;50.938;4.058;2022-07-23T13:55:21;4.50;;;3.15;;
53873;SDS011;62246;50.938;4.058;2022-07-23T13:57:46;3.80;;;3.05;;
53873;SDS011;62246;50.938;4.058;2022-07-23T14:00:12;4.00;;;2.63;;
53873;SDS011;62246;50.938;4.058;2022-07-23T14:02:38;6.88;;;3.13;;
53873;SDS011;62246;50.938;4.058;2022-07-23T14:05:05;5.60;;;3.10;;
53873;SDS011;62246;50.938;4.058;2022-07-23T14:07:33;5.65;;;3.35;;
53873;SDS011;62246;50.938;4.058;2022-07-23T14:09:59;4.68;;;3.15;;
53873;SDS011;62246;50.938;4.058;2022-07-23T14:12:25;4.10;;;3.05;;
53873;SDS011;62246;50.938;4.058;2022-07-23T14:14:50;6.10;;;3.40;;
53873;SDS011;62246;50.938;4.058;2022-07-23T14:17:16;7.43;;;3.35;;
53873;SDS011;62246;50.938;4.058;2022-07-23T14:19:41;4.43;;;3.00;;
53873;SDS011;62246;50.938;4.058;2022-07-23T14:22:07;5.85;;;3.08;;
53873;SDS011;62246;50.938;4.058;2022-07-23T14:24:33;8.15;;;2.97;;
53873;SDS011;62246;50.938;4.058;2022-07-23T14:26:59;5.60;;;3.10;;
53873;SDS011;62246;50.938;4.058;2022-07-23T14:29:26;9.52;;;4.45;;
53873;SDS011;62246;50.938;4.058;2022-07-23T14:31:51;4.78;;;3.30;;
53873;SDS011;62246;50.938;4.058;2022-07-23T14:34:16;4.75;;;3.13;;
53873;SDS011;62246;50.938;4.058;2022-07-23T14:36:42;4.22;;;3.03;;
53873;SDS011;62246;50.938;4.058;2022-07-23T14:39:08;5.43;;;3.22;;
53873;SDS011;62246;50.938;4.058;2022-07-23T14:41:34;4.45;;;3.10;;
53873;SDS011;62246;50.938;4.058;2022-07-23T14:44:00;6.57;;;3.33;;
53873;SDS011;62246;50.938;4.058;2022-07-23T14:46:26;7.32;;;3.55;;
53873;SDS011;62246;50.938;4.058;2022-07-23T14:48:52;5.35;;;3.20;;
53873;SDS011;62246;50.938;4.058;2022-07-23T14:51:17;5.60;;;3.13;;
53873;SDS011;62246;50.938;4.058;2022-07-23T14:53:43;4.53;;;3.45;;
53873;SDS011;62246;50.938;4.058;2022-07-23T14:56:08;4.57;;;3.38;;
53873;SDS011;62246;50.938;4.058;2022-07-23T14:58:34;5.93;;;3.72;;
53873;SDS011;62246;50.938;4.058;2022-07-23T15:00:59;4.55;;;3.70;;
53873;SDS011;62246;50.938;4.058;2022-07-23T15:03:25;4.93;;;3.70;;
53873;SDS011;62246;50.938;4.058;2022-07-23T15:05:50;4.43;;;3.67;;
53873;SDS011;62246;50.938;4.058;2022-07-23T15:08:17;5.50;;;3.85;;
53873;SDS011;62246;50.938;4.058;2022-07-23T15:10:42;7.03;;;3.50;;
53873;SDS011;62246;50.938;4.058;2022-07-23T15:13:07;5.38;;;3.75;;
53873;SDS011;62246;50.938;4.058;2022-07-23T15:15:33;5.13;;;3.65;;
53873;SDS011;62246;50.938;4.058;2022-07-23T15:17:58;6.32;;;4.05;;
53873;SDS011;62246;50.938;4.058;2022-07-23T15:20:24;5.82;;;3.72;;
53873;SDS011;62246;50.938;4.058;2022-07-23T15:22:49;5.07;;;3.50;;
53873;SDS011;62246;50.938;4.058;2022-07-23T15:25:15;6.43;;;4.05;;
53873;SDS011;62246;50.938;4.058;2022-07-23T15:27:40;4.55;;;4.03;;
53873;SDS011;62246;50.938;4.058;2022-07-23T15:30:06;5.88;;;4.00;;
53873;SDS011;62246;50.938;4.058;2022-07-23T15:32:32;5.72;;;3.97;;
53873;SDS011;62246;50.938;4.058;2022-07-23T15:34:58;4.07;;;3.67;;
53873;SDS011;62246;50.938;4.058;2022-07-23T15:37:23;6.18;;;3.90;;
53873;SDS011;62246;50.938;4.058;2022-07-23T15:39:49;4.88;;;4.38;;
53873;SDS011;62246;50.938;4.058;2022-07-23T15:42:15;6.38;;;4.00;;